Time;durP1;ratioP1;P1;durP2;ratioP2;P2;SDS_P1;SDS_P2;PMS_P1;PMS_P2;Temp;Humidity;BMP_temperature;BMP_pressure;BME280_temperature;BME280_humidity;BME280_pressure;Samples;Min_cycle;Max_cycle;Signal;HPM_P1;HPM_P2
2021/10/24 00:00:47;;;;;;;5.28;3.20;;;;;;;11.43;54.67;101272.41;2550515;76;29950;-81
2021/10/24 00:04:09;;;;;;;3.95;2.58;;;;;;;11.42;54.67;101278.05;2550502;77;25688;-82
2021/10/24 00:07:34;;;;;;;2.67;2.35;;;;;;;11.41;54.64;101277.59;2550594;76;25664;-81
2021/10/24 00:10:52;;;;;;;4.95;3.02;;;;;;;11.40;54.66;101282.74;2548966;77;25543;-78
2021/10/24 00:14:13;;;;;;;4.90;2.83;;;;;;;11.39;54.67;101288.39;2550094;77;30645;-82
2021/10/24 00:17:34;;;;;;;2.95;2.52;;;;;;;11.40;54.66;101290.58;2550343;76;30343;-81
2021/10/24 00:20:56;;;;;;;5.35;3.65;;;;;;;11.39;54.67;101287.50;2550528;76;25536;-80
2021/10/24 00:24:17;;;;;;;4.08;2.77;;;;;;;11.40;54.68;101294.48;2550425;76;25588;-81
2021/10/24 00:27:37;;;;;;;4.42;3.05;;;;;;;11.37;54.69;101288.73;2550129;77;30858;-81
2021/10/24 00:30:59;;;;;;;3.93;3.13;;;;;;;11.38;54.68;101290.53;2550331;76;25572;-82
2021/10/24 00:34:20;;;;;;;4.22;2.75;;;;;;;11.37;54.67;101292.66;2547000;77;25645;-80
2021/10/24 00:37:40;;;;;;;3.87;3.10;;;;;;;11.38;54.67;101300.09;2542551;76;28937;-79
2021/10/24 00:41:01;;;;;;;3.53;2.90;;;;;;;11.38;54.67;101319.67;2542765;76;25622;-81
2021/10/24 00:44:26;;;;;;;4.28;3.12;;;;;;;11.36;54.68;101305.25;2542161;76;25634;-81
2021/10/24 00:47:47;;;;;;;4.42;3.50;;;;;;;11.34;54.66;101298.68;2542448;76;25658;-82
2021/10/24 00:51:08;;;;;;;4.62;3.22;;;;;;;11.35;54.68;101301.75;2542453;76;30586;-82
2021/10/24 00:54:30;;;;;;;4.60;3.60;;;;;;;11.35;54.68;101307.40;2541602;76;25880;-81
2021/10/24 00:57:52;;;;;;;4.00;3.25;;;;;;;11.35;54.67;101310.89;2542038;76;25991;-76
2021/10/24 01:01:13;;;;;;;3.92;3.42;;;;;;;11.34;54.68;101316.95;2542378;77;25654;-82
2021/10/24 01:04:34;;;;;;;4.87;3.37;;;;;;;11.34;54.66;101326.09;2541164;77;30941;-81
2021/10/24 01:08:04;;;;;;;4.87;3.80;;;;;;;11.34;54.66;101323.91;2539494;77;30669;-80
2021/10/24 01:11:47;;;;;;;5.33;3.80;;;;;;;11.33;54.67;101325.59;2541507;76;25554;-80
2021/10/24 01:15:08;;;;;;;6.20;3.67;;;;;;;11.32;54.69;101318.61;2541682;76;25531;-80
2021/10/24 01:18:29;;;;;;;4.42;3.12;;;;;;;11.33;54.65;101321.68;2542129;76;25923;-81
2021/10/24 01:21:50;;;;;;;4.40;3.30;;;;;;;11.33;54.68;101320.80;2542401;76;25824;-81
2021/10/24 01:25:12;;;;;;;3.83;3.33;;;;;;;11.32;54.67;101329.05;2541819;76;30034;-77
2021/10/24 01:28:34;;;;;;;3.47;2.95;;;;;;;11.32;54.64;101322.95;2540067;77;25702;-79
2021/10/24 01:31:55;;;;;;;4.62;3.52;;;;;;;11.32;54.65;101329.47;2530557;77;25606;-76
2021/10/24 01:35:16;;;;;;;5.93;3.30;;;;;;;11.31;54.66;101323.80;2542436;77;29499;-78
2021/10/24 01:38:40;;;;;;;5.47;3.60;;;;;;;11.31;54.70;101329.90;2542096;76;25599;-81
2021/10/24 01:42:02;;;;;;;6.03;3.45;;;;;;;11.31;54.69;101339.45;2531161;77;25630;-81
2021/10/24 01:45:27;;;;;;;3.85;3.10;;;;;;;11.31;54.70;101339.03;2542197;76;25600;-78
2021/10/24 01:48:50;;;;;;;5.85;3.75;;;;;;;11.32;54.71;101339.92;2542116;77;25660;-76
2021/10/24 01:52:16;;;;;;;6.35;4.42;;;;;;;11.32;54.69;101339.92;2542409;77;25682;-79
2021/10/24 01:55:37;;;;;;;5.03;3.40;;;;;;;11.33;54.67;101339.08;2542713;77;25673;-79
2021/10/24 01:58:59;;;;;;;5.67;4.35;;;;;;;11.33;54.66;101345.59;2542448;76;25607;-82
2021/10/24 02:02:22;;;;;;;4.35;3.58;;;;;;;11.34;54.66;101352.20;2540296;77;25698;-82
2021/10/24 02:05:47;;;;;;;6.65;3.85;;;;;;;11.33;54.63;101339.96;2536127;77;25604;-81
2021/10/24 02:09:08;;;;;;;4.83;3.98;;;;;;;11.32;54.64;101339.50;2542598;77;30714;-83
2021/10/24 02:12:29;;;;;;;4.65;4.10;;;;;;;11.32;54.64;101343.83;2531238;77;30972;-80
2021/10/24 02:15:52;;;;;;;9.63;4.05;;;;;;;11.31;54.65;101348.17;2541554;77;25142;-82
2021/10/24 02:19:12;;;;;;;5.12;4.33;;;;;;;11.31;54.73;101371.67;2542487;77;30041;-82
2021/10/24 02:22:34;;;;;;;5.75;3.95;;;;;;;11.31;54.73;101371.67;2542990;77;25134;-80
2021/10/24 02:25:57;;;;;;;5.12;4.28;;;;;;;11.31;54.64;101372.09;2541995;77;25586;-81
2021/10/24 02:29:18;;;;;;;4.78;4.28;;;;;;;11.31;54.66;101370.78;2541993;77;25872;-81
2021/10/24 02:32:42;;;;;;;4.58;3.75;;;;;;;11.30;54.65;101362.03;2542011;77;25639;-81
2021/10/24 02:36:04;;;;;;;5.30;4.25;;;;;;;11.29;54.65;101361.57;2542090;77;25646;-82
2021/10/24 02:39:26;;;;;;;6.03;3.98;;;;;;;11.30;54.66;101365.95;2530330;77;25571;-78
2021/10/24 02:42:48;;;;;;;4.92;4.42;;;;;;;11.30;54.65;101372.90;2542247;77;25603;-81
2021/10/24 02:46:25;;;;;;;6.35;4.35;;;;;;;11.29;54.65;101373.32;2541886;77;26273;-80
2021/10/24 02:49:48;;;;;;;6.28;3.95;;;;;;;11.30;54.62;101375.09;2542097;76;25619;-81
2021/10/24 02:53:09;;;;;;;4.47;3.77;;;;;;;11.29;54.63;101382.45;2530969;77;25653;-79
2021/10/24 02:56:30;;;;;;;4.35;3.87;;;;;;;11.30;54.64;101397.70;2542744;76;25559;-82
2021/10/24 02:59:51;;;;;;;4.55;4.10;;;;;;;11.29;54.62;101392.90;2541977;76;25603;-79
2021/10/24 03:03:17;;;;;;;5.67;4.47;;;;;;;11.28;54.65;101400.27;2530807;77;29407;-80
2021/10/24 03:06:39;;;;;;;4.80;4.35;;;;;;;11.29;54.62;101411.59;2531008;77;25661;-78
2021/10/24 03:10:01;;;;;;;5.55;5.00;;;;;;;11.29;54.62;101416.81;2542462;76;25707;-76
2021/10/24 03:13:23;;;;;;;4.58;3.80;;;;;;;11.29;54.63;101413.78;2542381;77;25600;-80
2021/10/24 03:16:45;;;;;;;5.58;3.72;;;;;;;11.27;54.64;101403.72;2541684;77;25161;-80
2021/10/24 03:20:10;;;;;;;4.70;4.22;;;;;;;11.28;54.67;101417.66;2541775;76;25245;-80
2021/10/24 03:23:32;;;;;;;5.30;4.53;;;;;;;11.28;54.66;101420.27;2542451;77;25612;-81
2021/10/24 03:26:54;;;;;;;5.58;5.00;;;;;;;11.26;54.65;101420.20;2542522;77;25682;-73
2021/10/24 03:30:16;;;;;;;6.05;4.05;;;;;;;11.28;54.63;101432.91;2541869;76;25843;-82
2021/10/24 03:33:40;;;;;;;7.60;5.35;;;;;;;11.28;54.61;101432.91;2542340;77;25653;-81
2021/10/24 03:37:02;;;;;;;5.83;4.35;;;;;;;11.27;54.63;101431.13;2549152;76;25583;-81
2021/10/24 03:40:25;;;;;;;6.17;5.50;;;;;;;11.28;54.64;101443.77;2550561;76;25713;-80
2021/10/24 03:43:46;;;;;;;7.37;4.70;;;;;;;11.29;54.61;101439.01;2550721;76;25610;-75
2021/10/24 03:47:09;;;;;;;5.75;4.75;;;;;;;11.28;54.63;101448.56;2549438;76;25614;-80
2021/10/24 03:50:30;;;;;;;5.95;4.92;;;;;;;11.28;54.65;101456.81;2550466;76;29716;-72
2021/10/24 03:53:51;;;;;;;9.53;6.22;;;;;;;11.28;54.65;101463.34;2549151;76;25183;-75
2021/10/24 03:57:13;;;;;;;7.92;5.15;;;;;;;11.29;54.63;101455.98;2549670;77;25596;-82
2021/10/24 04:00:34;;;;;;;5.95;5.25;;;;;;;11.28;54.65;101462.04;2549545;77;26289;-81
2021/10/24 04:03:58;;;;;;;10.13;5.87;;;;;;;11.28;54.65;101464.23;2548988;76;25628;-81
2021/10/24 04:07:19;;;;;;;7.60;6.25;;;;;;;11.28;54.65;101466.84;2550510;77;25648;-80
2021/10/24 04:10:41;;;;;;;10.05;6.42;;;;;;;11.28;54.65;101468.14;2550022;77;25615;-81
2021/10/24 04:14:03;;;;;;;9.53;6.33;;;;;;;11.29;54.65;101462.08;2550388;77;25623;-81
2021/10/24 04:17:24;;;;;;;8.23;6.25;;;;;;;11.31;54.66;101460.85;2549361;76;25553;-81
2021/10/24 04:20:44;;;;;;;8.10;5.90;;;;;;;11.30;54.63;101463.85;2550407;77;29126;-81
2021/10/24 04:24:06;;;;;;;7.45;6.30;;;;;;;11.31;54.65;101457.82;2549907;77;25524;-80
2021/10/24 04:27:28;;;;;;;8.63;6.78;;;;;;;11.31;54.64;101457.82;2550177;76;30534;-75
2021/10/24 04:30:49;;;;;;;8.63;5.83;;;;;;;11.32;54.62;101454.37;2538061;77;26213;-77
2021/10/24 04:34:10;;;;;;;9.35;6.33;;;;;;;11.31;54.65;101460.85;2544783;76;25817;-77
2021/10/24 04:37:32;;;;;;;13.48;6.75;;;;;;;11.33;54.63;101463.09;2542366;77;25334;-79
2021/10/24 04:40:52;;;;;;;7.67;6.10;;;;;;;11.32;54.63;101467.84;2539652;76;25581;-79
2021/10/24 04:44:13;;;;;;;10.10;7.50;;;;;;;11.32;54.64;101470.03;2542409;77;29804;-82
2021/10/24 04:47:36;;;;;;;11.35;7.33;;;;;;;11.32;54.63;101473.06;2539419;76;25778;-77
2021/10/24 04:50:57;;;;;;;9.78;6.92;;;;;;;11.32;54.63;101479.17;2542308;76;25608;-79
2021/10/24 04:54:21;;;;;;;7.37;6.03;;;;;;;11.34;54.62;101472.72;2542276;76;25666;-78
2021/10/24 04:57:42;;;;;;;11.03;8.13;;;;;;;11.33;54.60;101482.67;2542668;76;25599;-80
2021/10/24 05:01:09;;;;;;;10.48;6.47;;;;;;;11.33;54.63;101486.58;2542215;76;25716;-81
2021/10/24 05:04:29;;;;;;;9.55;6.40;;;;;;;11.34;54.63;101496.22;2531220;77;25683;-82
2021/10/24 05:07:51;;;;;;;10.63;7.12;;;;;;;11.33;54.63;101493.11;2542226;76;25598;-82
2021/10/24 05:11:12;;;;;;;10.60;6.57;;;;;;;11.33;54.64;101502.25;2542547;76;29202;-80
2021/10/24 05:14:33;;;;;;;9.33;6.90;;;;;;;11.33;54.76;101504.86;2542597;77;30705;-81
2021/10/24 05:17:54;;;;;;;9.28;6.33;;;;;;;11.33;54.76;101504.86;2542287;77;25630;-81
2021/10/24 05:21:15;;;;;;;11.08;6.85;;;;;;;11.33;54.64;101501.83;2543026;76;30532;-81
2021/10/24 05:24:36;;;;;;;7.92;6.78;;;;;;;11.34;54.64;101498.83;2531606;77;29462;-79
2021/10/24 05:28:09;;;;;;;8.68;6.92;;;;;;;11.34;54.64;101505.36;2541471;77;25585;-81
2021/10/24 05:31:32;;;;;;;9.75;7.15;;;;;;;11.33;54.65;101501.83;2541853;76;25260;-78
2021/10/24 05:35:00;;;;;;;9.45;6.47;;;;;;;11.34;54.63;101501.44;2541995;77;25692;-78
2021/10/24 05:38:24;;;;;;;10.35;6.78;;;;;;;11.33;54.63;101509.66;2549764;76;25596;-81
2021/10/24 05:41:47;;;;;;;9.03;6.60;;;;;;;11.35;54.65;101513.23;2549149;76;25118;-80
2021/10/24 05:45:09;;;;;;;7.97;6.50;;;;;;;11.37;54.61;101526.75;2549325;77;26251;-81
2021/10/24 05:48:31;;;;;;;10.13;6.25;;;;;;;11.35;54.61;101527.59;2549408;77;25575;-74
2021/10/24 05:51:57;;;;;;;7.12;6.25;;;;;;;11.37;54.62;101526.75;2549581;76;25638;-73
2021/10/24 05:55:19;;;;;;;8.93;6.90;;;;;;;11.35;54.60;101526.28;2538638;77;25730;-74
2021/10/24 05:58:42;;;;;;;6.80;6.12;;;;;;;11.38;54.60;101524.22;2549014;76;25670;-72
2021/10/24 06:02:22;;;;;;;11.43;7.03;;;;;;;11.39;54.62;101530.33;2530046;77;25608;-74
2021/10/24 06:06:04;;;;;;;9.40;6.28;;;;;;;11.40;54.60;101543.42;2549863;77;25735;-73
2021/10/24 06:09:50;;;;;;;8.53;6.00;;;;;;;11.41;54.59;101553.48;2549941;76;25658;-79
2021/10/24 06:13:09;;;;;;;9.03;6.08;;;;;;;11.41;54.54;101558.29;2550003;76;25830;-76
2021/10/24 06:16:30;;;;;;;7.28;5.90;;;;;;;11.42;54.57;101561.78;2550307;76;25614;-75
2021/10/24 06:19:52;;;;;;;10.40;7.00;;;;;;;11.43;54.60;101566.16;2549747;77;25666;-75
2021/10/24 06:23:13;;;;;;;8.45;6.45;;;;;;;11.46;54.57;101578.04;2550388;76;25748;-75
2021/10/24 06:26:36;;;;;;;7.30;5.85;;;;;;;11.49;54.54;101583.38;2549502;76;25729;-81
2021/10/24 06:29:57;;;;;;;8.90;6.75;;;;;;;11.51;54.51;101583.92;2549634;76;25635;-78
2021/10/24 06:33:23;;;;;;;9.63;5.67;;;;;;;11.54;54.49;101587.97;2420028;81;25720;-77
2021/10/24 06:36:53;;;;;;;8.45;5.47;;;;;;;11.57;54.47;101596.31;2422318;81;25636;-82
2021/10/24 06:40:25;;;;;;;8.45;5.95;;;;;;;11.58;54.44;101595.50;2423139;80;25621;-79
2021/10/24 06:43:49;;;;;;;9.83;6.60;;;;;;;11.61;54.43;101598.63;2423634;80;25739;-82
2021/10/24 06:47:14;;;;;;;8.18;5.95;;;;;;;11.61;54.41;101606.08;2332432;83;26590;-78
2021/10/24 06:50:44;;;;;;;9.98;5.58;;;;;;;11.65;54.40;101609.70;2322805;84;25763;-81
2021/10/24 06:54:13;;;;;;;5.80;5.20;;;;;;;11.66;54.39;101612.35;2271342;84;25649;-74
2021/10/24 06:57:56;;;;;;;8.18;6.40;;;;;;;11.69;54.35;101615.09;2270131;86;25717;-76
2021/10/24 07:01:37;;;;;;;6.28;5.65;;;;;;;11.73;54.38;101616.98;2230332;87;25874;-72
2021/10/24 07:05:17;;;;;;;8.90;6.28;;;;;;;11.76;54.33;101626.25;2269865;86;25910;-72
2021/10/24 07:08:40;;;;;;;8.63;5.72;;;;;;;11.78;54.31;101625.91;2270278;87;25864;-71
2021/10/24 07:12:01;;;;;;;9.30;6.05;;;;;;;11.80;54.29;101627.25;2308463;85;30792;-76
2021/10/24 07:15:23;;;;;;;10.05;6.17;;;;;;;11.83;54.30;101635.21;2309868;85;25713;-72
2021/10/24 07:18:46;;;;;;;8.38;5.83;;;;;;;11.86;54.28;101626.64;2309172;85;26415;-81
2021/10/24 07:22:07;;;;;;;8.43;5.92;;;;;;;11.89;54.25;101626.77;2309153;85;25810;-80
2021/10/24 07:25:41;;;;;;;6.78;5.70;;;;;;;11.92;54.26;101654.32;2317653;85;25756;-81
2021/10/24 07:29:03;;;;;;;8.10;5.62;;;;;;;11.97;54.30;101665.41;2317597;85;25780;-80
2021/10/24 07:32:24;;;;;;;6.40;5.28;;;;;;;12.02;54.32;101665.18;2442276;80;25668;-81
2021/10/24 07:36:04;;;;;;;;;;;;;;;12.12;54.37;101660.31;2412954;80;25805;-77
2021/10/24 07:39:25;;;;;;;6.35;5.42;;;;;;;12.19;54.27;101662.31;2411087;82;25756;-81
2021/10/24 07:42:47;;;;;;;8.18;6.08;;;;;;;12.22;54.25;101656.78;2436316;80;25595;-75
2021/10/24 07:46:09;;;;;;;6.65;5.87;;;;;;;12.28;54.26;101667.48;2410830;81;25737;-80
2021/10/24 07:49:31;;;;;;;6.03;5.28;;;;;;;12.35;54.17;101673.83;2410673;82;26517;-82
2021/10/24 07:52:55;;;;;;;7.70;5.83;;;;;;;12.43;54.12;101686.76;2410664;81;25692;-81
2021/10/24 07:56:17;;;;;;;8.40;6.00;;;;;;;12.46;54.03;101688.18;2409287;80;25673;-74
2021/10/24 07:59:48;;;;;;;8.03;5.55;;;;;;;12.48;54.08;101681.68;2416204;79;25630;-76
2021/10/24 08:03:09;;;;;;;8.88;6.12;;;;;;;12.51;54.02;101693.14;2516498;76;25768;-80
2021/10/24 08:06:42;;;;;;;8.05;5.90;;;;;;;12.52;54.05;101692.34;2546598;76;25702;-81
2021/10/24 08:10:07;;;;;;;6.30;4.85;;;;;;;12.57;54.05;101695.53;2545312;77;25643;-78
2021/10/24 08:13:29;;;;;;;7.17;4.55;;;;;;;12.62;54.02;101689.64;2528825;76;25748;-81
2021/10/24 08:16:50;;;;;;;8.18;5.62;;;;;;;12.66;54.05;101688.91;2544001;76;25653;-80
2021/10/24 08:20:15;;;;;;;6.33;5.22;;;;;;;12.70;53.95;101685.98;2537372;76;25230;-81
2021/10/24 08:23:36;;;;;;;6.17;5.05;;;;;;;12.75;53.92;101689.63;2544934;77;25639;-74
2021/10/24 08:26:57;;;;;;;6.28;5.35;;;;;;;12.78;53.96;101683.63;2544158;77;25658;-80
2021/10/24 08:30:23;;;;;;;6.05;4.90;;;;;;;12.81;53.83;101688.55;2541436;76;31012;-82
2021/10/24 08:33:46;;;;;;;7.47;5.55;;;;;;;12.84;53.81;101689.97;2536089;77;26215;-75
2021/10/24 08:37:09;;;;;;;5.72;5.22;;;;;;;12.84;53.73;101691.27;2535950;76;31654;-81
2021/10/24 08:40:30;;;;;;;5.40;4.72;;;;;;;12.85;53.79;101696.97;2537928;77;25727;-77
2021/10/24 08:43:52;;;;;;;7.25;4.75;;;;;;;12.88;53.79;101701.02;2537764;77;25718;-75
2021/10/24 08:47:24;;;;;;;7.10;5.70;;;;;;;12.95;53.73;101699.50;2525716;77;26098;-81
2021/10/24 08:51:16;;;;;;;;;;;;;;;13.01;53.61;101695.80;2534043;77;25671;-77
2021/10/24 08:56:31;;;;;;;9.45;5.58;;;;;;;13.23;53.44;101707.91;2650929;74;30899;-81
2021/10/24 08:59:58;;;;;;;5.45;4.65;;;;;;;13.26;53.33;101711.95;2623121;74;25567;-81
2021/10/24 09:03:19;;;;;;;5.50;4.85;;;;;;;13.30;53.24;101715.16;2621027;75;26178;-83
2021/10/24 09:07:26;;;;;;;5.83;4.80;;;;;;;13.34;53.16;101718.78;2621181;74;25709;-79
2021/10/24 09:10:52;;;;;;;7.83;5.95;;;;;;;13.37;53.17;101718.45;2613932;74;25653;-77
2021/10/24 09:14:14;;;;;;;5.92;5.42;;;;;;;13.48;53.11;101721.85;2590951;75;25657;-74
2021/10/24 09:17:36;;;;;;;8.88;6.03;;;;;;;13.59;53.08;101717.42;2595296;74;25796;-74
2021/10/24 09:21:19;;;;;;;7.72;6.25;;;;;;;13.88;52.99;101718.36;2584937;75;25633;-84
2021/10/24 09:25:12;;;;;;;5.60;5.10;;;;;;;14.21;52.69;101724.58;2597269;74;25649;-82
2021/10/24 09:28:33;;;;;;;6.78;5.40;;;;;;;14.32;52.43;101717.95;2613391;75;25764;-77
2021/10/24 09:31:55;;;;;;;7.95;5.95;;;;;;;14.35;52.31;101726.80;2604987;75;25610;-75
2021/10/24 09:35:25;;;;;;;6.45;5.62;;;;;;;14.36;52.22;101727.25;2619977;75;25669;-77
2021/10/24 09:39:09;;;;;;;6.62;5.87;;;;;;;14.42;52.19;101730.48;2624176;75;25715;-76
2021/10/24 09:42:30;;;;;;;8.55;5.65;;;;;;;14.52;52.35;101739.56;2624547;75;25660;-74
2021/10/24 09:46:06;;;;;;;12.95;6.65;;;;;;;14.77;53.39;101732.83;2624641;75;30852;-77
2021/10/24 09:49:27;;;;;;;7.67;6.30;;;;;;;14.99;54.68;101736.95;2624573;74;25566;-76
2021/10/24 09:52:49;;;;;;;8.03;6.30;;;;;;;14.99;54.68;101736.95;2623821;75;25700;-77
2021/10/24 09:56:23;;;;;;;8.18;5.90;;;;;;;15.13;54.90;101740.38;2623997;74;30855;-74
2021/10/24 09:59:40;;;;;;;8.15;6.58;;;;;;;15.27;55.21;101741.63;2600939;74;25149;-76
2021/10/24 10:03:05;;;;;;;12.13;6.78;;;;;;;15.51;55.25;101741.36;2584417;75;25722;-76
2021/10/24 10:06:26;;;;;;;8.95;6.87;;;;;;;17.06;55.69;101740.44;2583740;76;25570;-78
2021/10/24 10:09:47;;;;;;;10.65;7.28;;;;;;;18.86;53.71;101744.07;2583572;76;25630;-78
2021/10/24 10:13:13;;;;;;;9.08;7.90;;;;;;;20.15;52.28;101755.80;2583711;76;25678;-77
2021/10/24 10:16:58;;;;;;;8.50;7.67;;;;;;;21.37;49.41;101756.31;2583428;76;25566;-74
2021/10/24 10:20:41;;;;;;;13.08;8.40;;;;;;;21.74;47.28;101766.06;2580631;75;25686;-77
2021/10/24 10:24:06;;;;;;;11.12;9.08;;;;;;;21.80;46.11;101763.38;2587166;75;25571;-76
2021/10/24 10:27:38;;;;;;;11.03;8.40;;;;;;;21.94;44.93;101772.24;2583460;76;25563;-77
2021/10/24 10:31:09;;;;;;;9.58;7.50;;;;;;;21.81;44.09;101773.14;2583330;75;25141;-76
2021/10/24 10:34:35;;;;;;;9.03;8.13;;;;;;;21.65;44.00;101762.95;2608774;74;25678;-78
2021/10/24 10:38:05;;;;;;;12.80;7.70;;;;;;;21.49;44.05;101766.04;2624252;75;25648;-77
2021/10/24 10:41:31;;;;;;;8.40;7.65;;;;;;;21.43;44.05;101766.94;2631946;75;25943;-77
2021/10/24 10:45:36;;;;;;;8.60;7.67;;;;;;;21.40;44.09;101771.36;2631715;74;25594;-76
2021/10/24 10:49:38;;;;;;;;;;;;;;;;;;;;;
2021/10/24 10:53:07;;;;;;;8.80;7.37;;;;;;;21.42;44.01;101766.47;2515140;78;25291;-77
2021/10/24 10:56:56;;;;;;;8.50;7.05;;;;;;;21.33;43.95;101757.17;2511925;77;25776;-78
2021/10/24 11:00:37;;;;;;;8.08;7.37;;;;;;;21.32;44.06;101769.09;2510281;78;25662;-76
2021/10/24 11:04:18;;;;;;;8.25;7.25;;;;;;;21.45;44.11;101761.62;2478139;78;25260;-77
2021/10/24 11:07:44;;;;;;;15.40;10.30;;;;;;;21.54;43.97;101760.31;2464699;78;25873;-83
2021/10/24 11:11:05;;;;;;;14.25;9.08;;;;;;;21.72;42.90;101765.17;2463067;80;25842;-82
2021/10/24 11:14:41;;;;;;;13.68;9.80;;;;;;;21.18;41.75;101758.02;2491624;77;25863;-80
2021/10/24 11:18:04;;;;;;;13.05;9.48;;;;;;;20.93;39.96;101755.77;2508370;78;25727;-82
2021/10/24 11:21:28;;;;;;;10.58;9.35;;;;;;;21.01;39.94;101748.27;2549697;77;25685;-83
2021/10/24 11:24:54;;;;;;;15.40;11.10;;;;;;;21.13;39.08;101750.95;2632608;74;25648;-82
2021/10/24 11:28:31;;;;;;;12.58;11.33;;;;;;;21.22;38.20;101745.64;2644142;74;25573;-82
2021/10/24 11:32:51;;;;;;;16.05;10.58;;;;;;;21.30;37.53;101750.98;2616527;74;26106;-83
2021/10/24 11:37:17;;;;;;;11.95;10.58;;;;;;;21.12;36.98;101743.85;2599279;73;25670;-85
2021/10/24 11:40:54;;;;;;;10.48;9.30;;;;;;;21.13;36.91;101745.20;2605453;74;25930;-82
2021/10/24 11:49:03;;;;;;;10.10;9.15;;;;;;;21.20;36.69;101742.12;2582877;74;26007;-83
2021/10/24 11:52:31;;;;;;;12.33;10.03;;;;;;;21.50;36.45;101746.60;2598361;74;25557;-81
2021/10/24 12:00:39;;;;;;;11.20;9.10;;;;;;;21.30;36.27;101745.67;2417009;81;25851;-82
2021/10/24 12:04:27;;;;;;;11.73;8.25;;;;;;;21.48;36.36;101741.72;2389062;81;26202;-83
2021/10/24 12:08:21;;;;;;;12.47;8.95;;;;;;;21.79;36.52;101741.70;2377767;81;25694;-81
2021/10/24 12:11:48;;;;;;;16.67;12.43;;;;;;;21.98;35.99;101754.08;2311197;82;25657;-83
2021/10/24 12:15:13;;;;;;;19.57;10.98;;;;;;;22.11;35.78;101758.94;2224175;86;25776;-83
2021/10/24 12:18:49;;;;;;;12.25;9.38;;;;;;;22.13;35.31;101751.38;2206803;88;25979;-83
2021/10/24 12:22:16;;;;;;;12.73;9.00;;;;;;;22.11;35.19;101753.17;2230207;83;25670;-83
2021/10/24 12:26:09;;;;;;;13.00;9.25;;;;;;;22.06;34.88;101749.63;2226485;88;25746;-85
2021/10/24 12:29:40;;;;;;;16.35;10.35;;;;;;;22.12;34.75;101752.27;2233928;85;25642;-81
2021/10/24 12:33:37;;;;;;;12.90;10.05;;;;;;;22.33;34.69;101754.47;2242028;87;25759;-82
2021/10/24 12:37:37;;;;;;;10.45;8.93;;;;;;;22.65;34.00;101758.34;2293890;81;25735;-83
2021/10/24 12:41:06;;;;;;;13.50;9.20;;;;;;;22.78;33.85;101757.41;2327011;83;25856;-83
2021/10/24 12:44:42;;;;;;;12.90;8.65;;;;;;;22.91;33.71;101742.69;2335124;82;25560;-81
2021/10/24 12:48:03;;;;;;;10.93;8.40;;;;;;;22.85;34.01;101740.97;2447654;77;25983;-80
2021/10/24 12:56:23;;;;;;;12.43;9.25;;;;;;;23.36;34.07;101738.89;2497673;77;26420;-83
2021/10/24 12:59:59;;;;;;;14.80;10.93;;;;;;;23.08;33.64;101737.77;2470673;78;25963;-86
2021/10/24 13:03:25;;;;;;;13.85;9.63;;;;;;;22.89;33.44;101717.90;2469858;78;26216;-84
2021/10/24 13:06:49;;;;;;;13.98;11.20;;;;;;;22.68;33.22;101722.86;2476476;78;25871;-85
2021/10/24 13:10:17;;;;;;;12.30;10.48;;;;;;;22.48;33.45;101722.98;2450569;78;25617;-82
2021/10/24 13:13:48;;;;;;;14.65;9.65;;;;;;;22.32;33.63;101720.38;2468755;79;26424;-79
2021/10/24 13:17:10;;;;;;;15.88;10.23;;;;;;;22.23;33.70;101718.19;2490544;78;25179;-87
2021/10/24 13:20:33;;;;;;;14.25;9.45;;;;;;;22.12;33.74;101707.57;2443244;79;25687;-86
2021/10/24 13:23:59;;;;;;;14.55;11.30;;;;;;;22.07;33.54;101717.30;2446942;79;25630;-85
2021/10/24 13:27:21;;;;;;;13.60;9.50;;;;;;;21.77;33.48;101715.17;2442303;79;25647;-83
2021/10/24 13:30:42;;;;;;;14.98;10.10;;;;;;;21.48;33.81;101712.53;2409323;79;25663;-82
2021/10/24 13:34:05;;;;;;;15.35;11.10;;;;;;;21.51;34.17;101709.00;2380368;82;25606;-83
2021/10/24 13:37:25;;;;;;;17.48;11.18;;;;;;;21.35;33.67;101704.13;2378248;81;25489;-83
2021/10/24 13:40:48;;;;;;;15.05;10.28;;;;;;;20.85;33.70;101696.52;2378399;82;25708;-83
2021/10/24 13:44:14;;;;;;;13.45;10.10;;;;;;;20.52;34.27;101694.68;2370137;81;25609;-83
2021/10/24 13:47:49;;;;;;;13.72;11.33;;;;;;;20.41;34.73;101684.42;2427338;79;25654;-82
2021/10/24 13:51:12;;;;;;;13.40;11.08;;;;;;;20.35;34.79;101689.28;2417241;80;25735;-82
2021/10/24 13:54:38;;;;;;;11.95;9.08;;;;;;;20.04;34.75;101690.87;2402868;80;25657;-77
2021/10/24 13:57:58;;;;;;;12.40;9.25;;;;;;;19.89;35.49;101693.00;2400885;81;25549;-78
2021/10/24 14:01:19;;;;;;;10.85;8.78;;;;;;;20.09;35.54;101689.16;2486625;79;25618;-76
2021/10/24 14:04:40;;;;;;;9.68;8.28;;;;;;;20.20;35.61;101680.81;2503376;78;25154;-78
2021/10/24 14:08:02;;;;;;;10.23;8.53;;;;;;;20.23;35.79;101682.59;2504184;78;25814;-77
2021/10/24 14:11:26;;;;;;;11.57;9.43;;;;;;;20.18;35.92;101681.27;2504097;78;25660;-77
2021/10/24 14:14:48;;;;;;;14.53;8.35;;;;;;;20.11;36.11;101671.48;2504115;78;25135;-76
2021/10/24 14:18:09;;;;;;;10.03;8.05;;;;;;;20.01;36.33;101676.29;2503803;78;25651;-76
2021/10/24 14:21:30;;;;;;;10.60;8.70;;;;;;;19.88;36.61;101670.48;2451274;79;25655;-77
2021/10/24 14:24:51;;;;;;;12.73;8.60;;;;;;;19.73;36.86;101668.64;2452040;79;25822;-75
2021/10/24 14:28:11;;;;;;;9.00;7.45;;;;;;;19.59;37.11;101665.88;2453928;80;26272;-78
2021/10/24 14:31:33;;;;;;;10.38;8.18;;;;;;;19.44;37.26;101675.00;2404436;80;25659;-76
2021/10/24 14:34:57;;;;;;;9.38;7.37;;;;;;;19.30;37.55;101669.60;2433366;79;25786;-77
2021/10/24 14:38:18;;;;;;;11.25;8.23;;;;;;;19.17;37.83;101667.72;2411732;81;25817;-78
2021/10/24 14:41:39;;;;;;;10.93;8.20;;;;;;;19.03;38.19;101667.16;2408905;81;25743;-77
2021/10/24 14:48:38;;;;;;;8.13;6.78;;;;;;;18.76;38.84;101660.29;2343535;83;26160;-77
2021/10/24 14:52:06;;;;;;;8.80;7.78;;;;;;;18.61;39.13;101657.03;2347284;84;26507;-78
2021/10/24 14:55:29;;;;;;;9.30;8.05;;;;;;;18.48;39.36;101656.00;2348549;84;25356;-77
2021/10/24 14:58:50;;;;;;;8.88;7.08;;;;;;;18.34;39.71;101651.88;2358408;82;25728;-75
2021/10/24 15:02:11;;;;;;;9.28;7.83;;;;;;;18.22;40.00;101660.08;2402698;82;25713;-76
2021/10/24 15:05:32;;;;;;;10.03;6.60;;;;;;;18.08;40.25;101658.14;2406301;82;25737;-79
2021/10/24 15:08:53;;;;;;;10.65;7.58;;;;;;;17.97;40.50;101654.92;2407786;82;25632;-77
2021/10/24 15:12:23;;;;;;;8.35;6.50;;;;;;;17.84;40.81;101658.70;2410195;82;25182;-78
2021/10/24 15:16:05;;;;;;;7.87;6.50;;;;;;;17.72;41.07;101663.78;2408412;82;26200;-78
2021/10/24 15:22:44;;;;;;;13.10;6.80;;;;;;;17.45;41.58;101659.86;2410321;82;25738;-77
2021/10/24 15:26:10;;;;;;;9.35;6.20;;;;;;;17.35;41.82;101658.38;2443402;80;25756;-77
2021/10/24 15:29:31;;;;;;;8.53;6.37;;;;;;;17.20;42.02;101654.60;2441832;79;26203;-75
2021/10/24 15:32:58;;;;;;;7.25;5.90;;;;;;;17.10;42.25;101648.72;2427899;79;30858;-77
2021/10/24 15:36:20;;;;;;;7.87;5.55;;;;;;;16.99;42.49;101647.22;2437417;79;25607;-77
2021/10/24 15:43:35;;;;;;;7.08;5.65;;;;;;;16.79;42.89;101639.39;2440120;79;25626;-78
2021/10/24 15:47:03;;;;;;;5.75;5.22;;;;;;;16.67;43.08;101633.86;2438780;79;25641;-77
2021/10/24 15:50:25;;;;;;;5.70;5.10;;;;;;;16.59;43.29;101640.30;2444138;80;32420;-77
2021/10/24 15:53:46;;;;;;;7.05;5.72;;;;;;;16.49;43.44;101640.55;2448282;78;25783;-78
2021/10/24 15:57:07;;;;;;;7.55;5.35;;;;;;;16.41;43.58;101636.90;2447374;79;25643;-77
2021/10/24 16:00:28;;;;;;;6.28;4.58;;;;;;;16.33;43.75;101635.84;2431284;81;25186;-79
2021/10/24 16:04:06;;;;;;;;;;;;;;;;;;;;;
2021/10/24 16:07:22;;;;;;;5.87;5.35;;;;;;;16.18;44.00;101643.01;2447343;79;25674;-74
2021/10/24 16:10:43;;;;;;;4.90;4.37;;;;;;;16.11;44.13;101644.17;2454440;79;25628;-79
2021/10/24 16:14:04;;;;;;;6.67;4.85;;;;;;;16.03;44.29;101635.69;2451724;79;25406;-79
2021/10/24 16:17:25;;;;;;;6.72;4.95;;;;;;;15.95;44.43;101633.73;2462711;79;25217;-80
2021/10/24 16:20:47;;;;;;;7.95;5.72;;;;;;;15.89;44.54;101637.55;2490227;79;30904;-82
2021/10/24 16:24:10;;;;;;;7.58;5.12;;;;;;;15.79;44.61;101632.50;2484995;77;25577;-79